Etusivu
METAR-TAF:

METAR-TAF

Lentoasemat :

Harbin, Kiina

Leveyspiiri: 45-45N, Pituuspiiri: 126-46E, korkeus merenpinnasta: 143 m

Tämänhetkinen sää

Tämä raportti tehtiin 19 minuuttia sitten, kello 21.00 UTC
Tuuli 2 kn koillisesta
Lämpötila 18°C
Kosteus 94%
Ilmanpaine 1013 hPa
Näkyvyys 10 km tai enemmän
ei pilviä alle 1500 m:ssä eikä cumulonimbus-pilviä

METAR: ZYHB 172100Z 04001MPS CAVOK 18/17 Q1013 NOSIG

Aika: 05:19 (21:19 UTC)

Sääennuste

Tämä raportti tehtiin 6 tuntia ja 2 minuuttia sitten, kello 15.17 UTC
Ennuste voimassa 17. päivästä klo 18 UTC - 18. päivään klo 18 UTC
Tuuli 8 kn idästä
Näkyvyys: 6000 m
Muutamia pilviä 3000 ft:n korkeudessa

TAF: ZYHB 171517Z 1718/1818 08004MPS 6000 FEW030 TX28/1806Z TN18/1721Z

Säähavainnot ja -ennusteet yli 4000 lentoasemalta (METAR- ja TAF-raportit).

Käytössä olevat sääasemat on merkitty karttaan keltaisilla ja punaisilla pisteillä.

Aseta hiiri pisteen päälle nähdäksesi sääaseman nimen.

Klikkaa sitten nähdäksesi säähavainnot ja -ennusteet.

Kartan vaihtaminen: klikkaa mustalla rastilla varustettuja vihreitä pisteitä, niin voit zoomata sisään; viivalla varustettua vihreää pistettä, niin voit zoomata ulos tai vihreitä nuolia, niin pääset viereisille kartoille.


METAR-TAF: